Map

Track Data

SID SEASON NUMBER BASIN SUBBASIN NAME ISO_TIME NATURE LAT LON WMO_WIND WMO_PRES WMO_AGENCY TRACK_TYPE DIST2LAND LANDFALL IFLAG USA_AGENCY USA_ATCF_ID USA_LAT USA_LON USA_RECORD USA_STATUS USA_WIND USA_PRES USA_SSHS USA_R34_NE USA_R34_SE USA_R34_SW USA_R34_NW USA_R50_NE USA_R50_SE USA_R50_SW USA_R50_NW USA_R64_NE USA_R64_SE USA_R64_SW USA_R64_NW USA_POCI USA_ROCI USA_RMW USA_EYE TOKYO_LAT TOKYO_LON TOKYO_GRADE TOKYO_WIND TOKYO_PRES TOKYO_R50_DIR TOKYO_R50_LONG TOKYO_R50_SHORT TOKYO_R30_DIR TOKYO_R30_LONG TOKYO_R30_SHORT TOKYO_LAND CMA_LAT CMA_LON CMA_CAT CMA_WIND CMA_PRES HKO_LAT HKO_LON HKO_CAT HKO_WIND HKO_PRES NEWDELHI_LAT NEWDELHI_LON NEWDELHI_GRADE NEWDELHI_WIND NEWDELHI_PRES NEWDELHI_CI NEWDELHI_DP NEWDELHI_POCI REUNION_LAT REUNION_LON REUNION_TYPE REUNION_WIND REUNION_PRES REUNION_TNUM REUNION_CI REUNION_RMW REUNION_R34_NE REUNION_R34_SE REUNION_R34_SW REUNION_R34_NW REUNION_R50_NE REUNION_R50_SE REUNION_R50_SW REUNION_R50_NW REUNION_R64_NE REUNION_R64_SE REUNION_R64_SW REUNION_R64_NW BOM_LAT BOM_LON BOM_TYPE BOM_WIND BOM_PRES BOM_TNUM BOM_CI BOM_RMW BOM_R34_NE BOM_R34_SE BOM_R34_SW BOM_R34_NW BOM_R50_NE BOM_R50_SE BOM_R50_SW BOM_R50_NW BOM_R64_NE BOM_R64_SE BOM_R64_SW BOM_R64_NW BOM_ROCI BOM_POCI BOM_EYE BOM_POS_METHOD BOM_PRES_METHOD NADI_LAT NADI_LON NADI_CAT NADI_WIND NADI_PRES WELLINGTON_LAT WELLINGTON_LON WELLINGTON_WIND WELLINGTON_PRES DS824_LAT DS824_LON DS824_STAGE DS824_WIND DS824_PRES TD9636_LAT TD9636_LON TD9636_STAGE TD9636_WIND TD9636_PRES TD9635_LAT TD9635_LON TD9635_WIND TD9635_PRES TD9635_ROCI NEUMANN_LAT NEUMANN_LON NEUMANN_CLASS NEUMANN_WIND NEUMANN_PRES MLC_LAT MLC_LON MLC_CLASS MLC_WIND MLC_PRES USA_GUST BOM_GUST BOM_GUST_PER REUNION_GUST REUNION_GUST_PER USA_SEAHGT USA_SEARAD_NE USA_SEARAD_SE USA_SEARAD_SW USA_SEARAD_NW STORM_SPEED STORM_DIR
2019328S10168 2020 1 SP MM RITA 2019-11-24 00:00:00 NR -10.2000 168.200 PROVISIONAL 533 533 O_____________ tcvitals SP012019 -10.2000 168.200 35 997 0 150 50 1004 170 50 9 86
2019328S10168 2020 1 SP MM RITA 2019-11-24 03:00:00 NR -10.1652 168.673 PROVISIONAL 553 553 P_____________ SP012019 -10.1652 168.673 37 994 0 160 88 1004 170 50 8 90
2019328S10168 2020 1 SP MM RITA 2019-11-24 06:00:00 NR -10.2000 169.000 PROVISIONAL 567 562 O_____________ tcvitals SP012019 -10.2000 169.000 39 992 0 170 126 195 1004 170 50 5 115
2019328S10168 2020 1 SP MM RITA 2019-11-24 09:00:00 NR -10.3549 169.095 PROVISIONAL 552 533 P_____________ SP012019 -10.3549 169.095 45 991 0 135 110 120 1004 170 50 4 167
2019328S10168 2020 1 SP MM RITA 2019-11-24 12:00:00 NR -10.6000 169.100 PROVISIONAL 533 510 O_____________ tcvitals SP012019 -10.6000 169.100 51 991 0 100 95 50 45 1004 170 50 5 172
2019328S10168 2020 1 SP MM RITA 2019-11-24 15:00:00 NR -10.8850 169.178 PROVISIONAL 510 487 P_____________ SP012019 -10.8850 169.178 52 989 0 95 97 55 47 1004 167 50 6 162
2019328S10168 2020 1 SP MM RITA 2019-11-24 18:00:00 NR -11.2000 169.300 PROVISIONAL 487 464 O_____________ tcvitals SP012019 -11.2000 169.300 54 988 0 90 100 60 50 1004 165 50 7 155
2019328S10168 2020 1 SP MM RITA 2019-11-24 21:00:00 NR -11.5075 169.470 PROVISIONAL 470 455 P_____________ SP012019 -11.5075 169.470 59 985 0 112 97 60 50 1004 167 30 7 147
2019328S10168 2020 1 SP MM RITA 2019-11-25 00:00:00 NR -11.8000 169.700 PROVISIONAL 455 451 O_____________ tcvitals SP012019 -11.8000 169.700 64 983 1 135 95 60 50 1005 170 10 8 137
2019328S10168 2020 1 SP MM RITA 2019-11-25 03:00:00 NR -12.0651 170.000 PROVISIONAL 451 451 P_____________ SP012019 -12.0651 170.000 64 983 1 100 75 52 52 1004 170 11 8 130
2019328S10168 2020 1 SP MM RITA 2019-11-25 06:00:00 NR -12.3000 170.300 PROVISIONAL 459 459 O_____________ tcvitals SP012019 -12.3000 170.300 64 984 1 65 55 45 55 1004 170 12 7 129
2019328S10168 2020 1 SP MM RITA 2019-11-25 09:00:00 NR -12.5150 170.575 PROVISIONAL 470 463 P_____________ SP012019 -12.5150 170.575 62 985 0 80 62 57 62 1004 170 13 6 136
2019328S10168 2020 1 SP MM RITA 2019-11-25 12:00:00 NR -12.7000 170.700 PROVISIONAL 466 451 O_____________ tcvitals SP012019 -12.7000 170.700 60 986 0 95 70 70 70 1004 170 14 3 185
2019328S10168 2020 1 SP MM RITA 2019-11-25 15:00:00 NR -12.7675 170.567 PROVISIONAL 451 411 P_____________ SP012019 -12.7675 170.567 60 987 0 87 72 65 70 1005 170 14 5 232
2019328S10168 2020 1 SP MM RITA 2019-11-25 18:00:00 NR -13.0000 170.300 PROVISIONAL 411 340 O_____________ tcvitals SP012019 -13.0000 170.300 60 988 0 80 75 60 70 1006 170 14 12 207
2019328S10168 2020 1 SP MM RITA 2019-11-25 21:00:00 NR -13.8026 170.036 PROVISIONAL 340 294 P_____________ SP012019 -13.8026 170.036 60 988 0 75 80 60 60 1006 170 14 16 198
2019328S10168 2020 1 SP MM RITA 2019-11-26 00:00:00 NR -14.5000 169.800 PROVISIONAL 294 285 O_____________ tcvitals SP012019 -14.5000 169.800 60 989 0 70 85 60 50 1006 170 14 7 212
2019328S10168 2020 1 SP MM RITA 2019-11-26 03:00:00 NR -14.3900 169.662 PROVISIONAL 287 280 P_____________ SP012019 -14.3900 169.662 49 993 0 67 85 57 55 1006 162 19 4 334
2019328S10168 2020 1 SP MM RITA 2019-11-26 06:00:00 NR -14.1000 169.600 PROVISIONAL 287 283 O_____________ tcvitals SP012019 -14.1000 169.600 39 998 0 65 85 55 60 1006 155 25 2 353
2019328S10168 2020 1 SP MM RITA 2019-11-26 09:00:00 NR -14.1899 169.637 PROVISIONAL 283 277 P_____________ SP012019 -14.1899 169.637 37 999 0 65 82 60 65 1006 155 25 3 0
2019328S10168 2020 1 SP MM RITA 2019-11-26 12:00:00 NR -14.4000 169.600 PROVISIONAL 277 240 O_____________ tcvitals SP012019 -14.4000 169.600 35 1000 0 65 80 65 70 1006 155 25 5 222
2019328S10168 2020 1 SP MM RITA 2019-11-26 15:00:00 NR -14.5978 169.262 PROVISIONAL 240 194 P_____________ SP012019 -14.5978 169.262 35 1000 0 75 75 55 62 1006 145 25 8 239
2019328S10168 2020 1 SP MM RITA 2019-11-26 18:00:00 NR -14.8000 168.900 PROVISIONAL 194 180 O_____________ tcvitals SP012019 -14.8000 168.900 35 1001 0 85 70 45 55 1006 135 25 6 233
2019328S10168 2020 1 SP MM RITA 2019-11-26 21:00:00 NR -14.9752 168.750 PROVISIONAL 180 165 P_____________ SP012019 -14.9752 168.750 -1 4 204
2019328S10168 2020 1 SP MM RITA 2019-11-27 00:00:00 NR -15.1322 168.745 PROVISIONAL 165 O_____________ tcvitals SP012019 -15.1322 168.745 -1 3 187

Digital Typhoon Data and Search

About IBTrACS Database

This database is a web-friendly format of International Best Track Archive for Climate Stewardship (IBTrACS), a global best track data archive curated by NOAA dating back to 1842.

Updated: 2021-11-26